createdAt,value
2019-03-30T00:01:17.515Z,21.33
2019-03-30T00:03:48.233Z,17.30
2019-03-30T00:06:19.621Z,18.93
2019-03-30T00:08:50.547Z,19.50
2019-03-30T00:11:21.681Z,24.23
2019-03-30T00:13:52.123Z,27.23
2019-03-30T00:16:22.747Z,24.03
2019-03-30T00:18:53.895Z,21.47
2019-03-30T00:21:24.824Z,19.53
2019-03-30T00:23:55.626Z,19.70
2019-03-30T00:26:27.464Z,23.97
2019-03-30T00:28:58.274Z,18.97
2019-03-30T00:31:29.208Z,20.83
2019-03-30T00:34:00.083Z,20.23
2019-03-30T00:36:31.065Z,18.93
2019-03-30T00:39:05.429Z,23.27
2019-03-30T00:41:36.913Z,20.97
2019-03-30T00:44:09.615Z,12.73
2019-03-30T00:46:40.482Z,13.77
2019-03-30T00:49:12.778Z,14.37
2019-03-30T00:51:43.811Z,21.97
2019-03-30T00:54:14.552Z,19.07
2019-03-30T00:56:45.978Z,18.80
2019-03-30T00:59:17.198Z,19.23
2019-03-30T01:01:47.917Z,19.33
2019-03-30T01:04:18.588Z,19.27
2019-03-30T01:06:50.927Z,25.30
2019-03-30T01:09:21.671Z,22.53
2019-03-30T01:11:52.513Z,23.67
2019-03-30T01:14:23.106Z,23.27
2019-03-30T01:16:54.492Z,23.13
2019-03-30T01:19:25.777Z,27.20
2019-03-30T01:21:58.587Z,22.77
2019-03-30T01:24:29.993Z,26.53
2019-03-30T01:27:00.930Z,28.73
2019-03-30T01:29:31.870Z,23.07
2019-03-30T01:32:03.221Z,22.77
2019-03-30T01:34:34.517Z,22.83
2019-03-30T01:37:06.411Z,17.80
2019-03-30T01:39:37.775Z,16.33
2019-03-30T01:42:08.970Z,16.40
2019-03-30T01:44:41.334Z,22.40
2019-03-30T01:47:12.369Z,16.60
2019-03-30T01:49:42.820Z,16.13
2019-03-30T01:52:14.221Z,16.37
2019-03-30T01:54:45.336Z,13.10
2019-03-30T01:57:16.888Z,14.40
2019-03-30T02:00:09.965Z,15.73
2019-03-30T02:02:41.655Z,19.60
2019-03-30T02:05:16.081Z,19.63
2019-03-30T02:07:48.583Z,17.03
2019-03-30T02:10:43.222Z,13.37
2019-03-30T02:13:14.417Z,15.13
2019-03-30T02:15:46.797Z,18.67
2019-03-30T02:18:19.128Z,20.10
2019-03-30T02:20:49.996Z,22.63
2019-03-30T02:23:22.014Z,20.13
2019-03-30T02:25:52.605Z,18.63
2019-03-30T02:28:24.257Z,15.77
2019-03-30T02:30:55.029Z,16.53
2019-03-30T02:33:25.567Z,22.10
2019-03-30T02:35:57.144Z,16.63
2019-03-30T02:38:27.983Z,22.17
2019-03-30T02:40:58.675Z,33.50
2019-03-30T02:43:29.531Z,22.63
2019-03-30T02:46:01.248Z,29.60
2019-03-30T02:48:31.668Z,42.73
2019-03-30T02:51:02.402Z,43.57
2019-03-30T02:53:33.010Z,40.53
2019-03-30T02:56:04.060Z,41.00
2019-03-30T02:58:34.708Z,25.43
2019-03-30T03:01:05.397Z,25.37
2019-03-30T03:03:35.987Z,21.23
2019-03-30T03:06:06.673Z,17.80
2019-03-30T03:08:37.723Z,27.53
2019-03-30T03:11:08.177Z,28.90
2019-03-30T03:13:38.758Z,25.53
2019-03-30T03:16:09.465Z,28.57
2019-03-30T03:18:39.928Z,33.67
2019-03-30T03:21:10.552Z,28.90
2019-03-30T03:23:43.036Z,29.07
2019-03-30T03:26:13.739Z,28.23
2019-03-30T03:28:44.601Z,28.10
2019-03-30T03:31:15.060Z,28.10
2019-03-30T03:33:46.381Z,26.13
2019-03-30T03:36:20.090Z,25.83
2019-03-30T03:38:50.863Z,21.57
2019-03-30T03:41:21.954Z,24.00
2019-03-30T03:43:52.521Z,25.10
2019-03-30T03:46:23.121Z,22.13
2019-03-30T03:48:53.603Z,20.40
2019-03-30T03:51:26.141Z,20.30
2019-03-30T03:53:56.799Z,21.80
2019-03-30T03:56:27.273Z,20.77
2019-03-30T03:58:58.511Z,22.73
2019-03-30T04:01:28.922Z,22.83
2019-03-30T04:03:59.726Z,22.90
2019-03-30T04:06:31.995Z,24.20
2019-03-30T04:09:04.609Z,21.33
2019-03-30T04:11:35.585Z,24.93
2019-03-30T04:14:06.237Z,23.97
2019-03-30T04:16:36.938Z,21.03
2019-03-30T04:19:07.582Z,24.30
2019-03-30T04:21:44.208Z,23.70
2019-03-30T04:24:10.535Z,22.87
2019-03-30T04:26:41.883Z,25.03
2019-03-30T04:29:12.404Z,22.60
2019-03-30T04:31:43.062Z,23.27
2019-03-30T04:34:13.851Z,24.13
2019-03-30T04:36:44.493Z,25.63
2019-03-30T04:39:15.021Z,23.00
2019-03-30T04:41:45.851Z,22.23
2019-03-30T04:44:16.280Z,29.43
2019-03-30T04:46:46.901Z,26.20
2019-03-30T04:49:17.653Z,21.57
2019-03-30T04:51:57.440Z,24.33
2019-03-30T04:54:21.986Z,21.43
2019-03-30T04:56:52.492Z,24.37
2019-03-30T04:59:23.094Z,23.10
2019-03-30T05:01:53.842Z,27.40
2019-03-30T05:04:25.333Z,42.27
2019-03-30T05:06:56.061Z,36.77
2019-03-30T05:09:26.651Z,42.47
2019-03-30T05:11:57.344Z,37.50
2019-03-30T05:14:27.890Z,41.80
2019-03-30T05:16:58.952Z,37.30
2019-03-30T05:19:30.102Z,38.77
2019-03-30T05:22:11.567Z,44.43
2019-03-30T05:24:32.999Z,48.37
2019-03-30T05:27:04.533Z,59.50
2019-03-30T05:29:35.024Z,54.57
2019-03-30T05:32:05.659Z,56.13
2019-03-30T05:34:36.518Z,58.57
2019-03-30T05:37:07.039Z,57.53
2019-03-30T05:39:37.877Z,54.57
2019-03-30T05:42:08.352Z,47.17
2019-03-30T05:44:38.880Z,51.47
2019-03-30T05:47:09.271Z,54.23
2019-03-30T05:49:40.315Z,47.70
2019-03-30T05:52:25.531Z,51.37
2019-03-30T05:54:43.609Z,43.50
2019-03-30T05:57:15.030Z,44.70
2019-03-30T05:59:45.831Z,41.50
2019-03-30T06:02:16.644Z,44.43
2019-03-30T06:04:47.664Z,38.57
2019-03-30T06:07:18.298Z,41.23
2019-03-30T06:09:49.353Z,42.00
2019-03-30T06:12:20.220Z,44.17
2019-03-30T06:14:50.934Z,48.03
2019-03-30T06:17:22.025Z,43.90
2019-03-30T06:19:52.613Z,51.27
2019-03-30T06:22:23.060Z,49.80
2019-03-30T06:24:53.591Z,48.90
2019-03-30T06:27:24.997Z,48.03
2019-03-30T06:30:17.618Z,45.70
2019-03-30T06:32:48.019Z,48.53
2019-03-30T06:35:18.651Z,47.83
2019-03-30T06:37:49.181Z,42.37
2019-03-30T06:40:20.484Z,47.53
2019-03-30T06:42:51.279Z,45.80
2019-03-30T06:45:21.933Z,49.13
2019-03-30T06:47:52.724Z,41.77
2019-03-30T06:50:24.752Z,43.80
2019-03-30T06:52:58.667Z,42.63
2019-03-30T06:55:28.155Z,44.20
2019-03-30T06:57:58.798Z,42.77
2019-03-30T07:00:32.926Z,45.90
2019-03-30T07:03:04.883Z,46.90
2019-03-30T07:05:41.531Z,43.27
2019-03-30T07:08:13.917Z,46.33
2019-03-30T07:10:45.922Z,41.33
2019-03-30T07:13:16.694Z,39.10
2019-03-30T07:15:50.154Z,35.73
2019-03-30T07:18:22.371Z,38.50
2019-03-30T07:20:53.373Z,36.10
2019-03-30T07:23:24.128Z,37.13
2019-03-30T07:25:55.178Z,36.73
2019-03-30T07:28:27.973Z,37.20
2019-03-30T07:30:58.601Z,35.30
2019-03-30T07:33:29.553Z,34.60
2019-03-30T07:36:00.410Z,37.27
2019-03-30T07:38:31.219Z,33.10
2019-03-30T07:41:02.270Z,35.60
2019-03-30T07:43:32.765Z,29.00
2019-03-30T07:46:03.486Z,28.20
2019-03-30T07:48:34.677Z,27.70
2019-03-30T07:51:05.183Z,27.13
2019-03-30T07:53:44.315Z,25.20
2019-03-30T07:56:09.769Z,23.93
2019-03-30T07:58:40.360Z,27.37
2019-03-30T08:01:11.069Z,26.63
2019-03-30T08:03:41.777Z,22.53
2019-03-30T08:06:13.286Z,23.63
2019-03-30T08:08:44.187Z,27.83
2019-03-30T08:11:14.980Z,26.23
2019-03-30T08:13:45.682Z,28.20
2019-03-30T08:16:16.368Z,27.50
2019-03-30T08:18:47.188Z,30.17
2019-03-30T08:21:17.952Z,27.77
2019-03-30T08:23:50.364Z,27.47
2019-03-30T08:26:21.520Z,28.55
2019-03-30T08:28:53.737Z,28.23
2019-03-30T08:31:25.097Z,31.03
2019-03-30T08:33:56.165Z,37.33
2019-03-30T08:36:29.727Z,28.30
2019-03-30T08:39:00.274Z,26.97
2019-03-30T08:41:31.204Z,30.43
2019-03-30T08:44:02.439Z,31.90
2019-03-30T08:46:33.482Z,33.20
2019-03-30T08:49:04.626Z,29.25
2019-03-30T08:51:35.458Z,28.60
2019-03-30T08:54:06.013Z,36.23
2019-03-30T08:56:36.658Z,27.17
2019-03-30T08:59:07.239Z,25.08
2019-03-30T09:01:38.068Z,21.75
2019-03-30T09:04:08.622Z,22.50
2019-03-30T09:06:39.380Z,21.35
2019-03-30T09:09:10.128Z,22.55
2019-03-30T09:11:43.451Z,22.70
2019-03-30T09:14:13.593Z,24.40
2019-03-30T09:16:44.475Z,23.80
2019-03-30T09:19:16.978Z,22.30
2019-03-30T09:21:47.910Z,25.88
2019-03-30T09:24:18.585Z,24.50
2019-03-30T09:26:49.213Z,24.80
2019-03-30T09:29:20.644Z,25.35
2019-03-30T09:31:52.072Z,25.77
2019-03-30T09:34:22.556Z,29.72
2019-03-30T09:36:55.073Z,26.23
2019-03-30T09:39:26.690Z,31.25
2019-03-30T09:41:58.344Z,26.62
2019-03-30T09:44:29.518Z,31.10
2019-03-30T09:47:00.100Z,23.98
2019-03-30T09:49:31.248Z,22.90
2019-03-30T09:52:02.463Z,24.02
2019-03-30T09:54:33.338Z,23.22
2019-03-30T09:57:04.047Z,25.45
2019-03-30T09:59:35.109Z,30.45
2019-03-30T10:02:05.780Z,27.48
2019-03-30T10:04:37.135Z,26.17
2019-03-30T10:07:07.752Z,25.80
2019-03-30T10:09:39.052Z,26.50
2019-03-30T10:12:10.875Z,27.48
2019-03-30T10:14:42.066Z,26.45
2019-03-30T10:17:15.217Z,27.52
2019-03-30T10:20:03.685Z,31.40
2019-03-30T10:22:23.706Z,25.45
2019-03-30T10:24:58.377Z,24.82
2019-03-30T10:27:28.356Z,27.15
2019-03-30T10:29:59.931Z,27.02
2019-03-30T10:32:31.764Z,30.12
2019-03-30T10:35:02.919Z,32.03
2019-03-30T10:37:34.720Z,30.08
2019-03-30T10:40:07.616Z,31.75
2019-03-30T10:42:38.202Z,29.77
2019-03-30T10:45:09.077Z,32.33
2019-03-30T10:47:39.872Z,32.50
2019-03-30T10:50:11.016Z,28.32
2019-03-30T10:52:42.101Z,26.15
2019-03-30T10:55:12.732Z,27.70
2019-03-30T10:57:43.579Z,29.18
2019-03-30T11:00:17.357Z,34.55
2019-03-30T11:02:52.694Z,30.05
2019-03-30T11:05:23.877Z,33.02
2019-03-30T11:07:54.521Z,34.73
2019-03-30T11:10:25.007Z,30.20
2019-03-30T11:12:56.841Z,33.15
2019-03-30T11:15:27.510Z,39.88
2019-03-30T11:17:57.988Z,31.17
2019-03-30T11:20:28.707Z,33.53
2019-03-30T11:22:59.503Z,32.03
2019-03-30T11:25:30.245Z,34.38
2019-03-30T11:28:00.753Z,31.50
2019-03-30T11:30:32.252Z,32.85
2019-03-30T11:33:03.882Z,34.30
2019-03-30T11:35:34.722Z,36.83
2019-03-30T11:38:05.543Z,35.13
2019-03-30T11:40:36.970Z,34.33
2019-03-30T11:43:07.748Z,34.25
2019-03-30T11:45:38.326Z,37.42
2019-03-30T11:51:00.565Z,36.50
2019-03-30T11:53:32.298Z,36.60
2019-03-30T11:56:07.223Z,37.35
2019-03-30T11:58:38.414Z,35.25
2019-03-30T12:01:09.152Z,37.53
2019-03-30T12:03:41.479Z,37.03
2019-03-30T12:06:12.388Z,36.55
2019-03-30T12:08:44.424Z,35.90
2019-03-30T12:11:15.114Z,35.68
2019-03-30T12:13:45.808Z,34.60
2019-03-30T12:16:16.477Z,38.28
2019-03-30T12:18:47.039Z,33.35
2019-03-30T12:21:19.260Z,29.55
2019-03-30T12:23:49.778Z,34.27
2019-03-30T12:26:20.551Z,36.20
2019-03-30T12:28:51.233Z,38.35
2019-03-30T12:31:23.707Z,39.00
2019-03-30T12:33:54.447Z,39.60
2019-03-30T12:36:25.035Z,39.70
2019-03-30T12:38:56.854Z,41.18
2019-03-30T12:41:27.576Z,37.88
2019-03-30T12:43:58.434Z,41.60
2019-03-30T12:46:32.734Z,37.70
2019-03-30T12:49:03.529Z,36.60
2019-03-30T12:51:34.439Z,34.90
2019-03-30T12:54:05.160Z,34.08
2019-03-30T12:56:35.668Z,33.63
2019-03-30T12:59:06.369Z,36.58
2019-03-30T13:01:37.074Z,35.00
2019-03-30T13:04:07.865Z,36.42
2019-03-30T13:06:38.832Z,36.13
2019-03-30T13:09:09.648Z,37.48
2019-03-30T13:11:42.077Z,37.33
2019-03-30T13:14:12.736Z,34.80
2019-03-30T13:16:43.339Z,38.60
2019-03-30T13:19:13.795Z,37.15
2019-03-30T13:21:52.608Z,40.00
2019-03-30T13:24:17.946Z,36.08
2019-03-30T13:26:51.568Z,38.10
2019-03-30T13:29:22.342Z,39.58
2019-03-30T13:31:52.744Z,33.75
2019-03-30T13:34:23.361Z,38.78
2019-03-30T13:36:53.832Z,32.90
2019-03-30T13:39:24.455Z,34.40
2019-03-30T13:41:55.446Z,34.23
2019-03-30T13:44:26.100Z,35.85
2019-03-30T13:46:56.584Z,29.40
2019-03-30T13:49:29.663Z,36.00
2019-03-30T13:51:59.272Z,32.85
2019-03-30T13:54:29.781Z,41.95
2019-03-30T13:57:00.809Z,35.48
2019-03-30T13:59:33.726Z,35.75
2019-03-30T14:02:05.971Z,34.70
2019-03-30T14:04:37.135Z,31.40
2019-03-30T14:07:07.759Z,33.65
2019-03-30T14:09:38.576Z,30.15
2019-03-30T14:12:10.659Z,30.35
2019-03-30T14:14:41.203Z,26.42
2019-03-30T14:17:11.855Z,28.45
2019-03-30T14:19:42.441Z,30.80
2019-03-30T14:22:12.903Z,29.92
2019-03-30T14:24:43.581Z,30.80
2019-03-30T14:27:14.928Z,28.20
2019-03-30T14:29:45.690Z,29.45
2019-03-30T14:32:17.161Z,26.30
2019-03-30T14:34:47.575Z,26.35
2019-03-30T14:37:18.344Z,29.75
2019-03-30T14:39:49.512Z,27.30
2019-03-30T14:42:20.263Z,27.65
2019-03-30T14:44:51.637Z,31.25
2019-03-30T14:47:22.127Z,26.90
2019-03-30T14:49:54.547Z,27.02
2019-03-30T14:52:25.158Z,25.85
2019-03-30T14:54:55.945Z,25.43
2019-03-30T14:57:26.464Z,30.10
2019-03-30T14:59:57.172Z,26.20
2019-03-30T15:02:27.741Z,25.85
2019-03-30T15:05:00.969Z,24.57
2019-03-30T15:07:31.062Z,28.35
2019-03-30T15:10:01.753Z,23.83
2019-03-30T15:12:32.467Z,24.67
2019-03-30T15:15:03.186Z,24.53
2019-03-30T15:17:34.189Z,24.17
2019-03-30T15:20:10.375Z,24.55
2019-03-30T15:22:41.924Z,24.00
2019-03-30T15:25:12.703Z,26.00
2019-03-30T15:27:43.188Z,23.70
2019-03-30T15:30:16.142Z,25.20
2019-03-30T15:32:49.607Z,23.90
2019-03-30T15:35:21.392Z,21.43
2019-03-30T15:37:52.495Z,23.50
2019-03-30T15:40:23.518Z,25.63
2019-03-30T15:42:54.601Z,23.20
2019-03-30T15:45:27.128Z,22.53
2019-03-30T15:47:57.658Z,20.70
2019-03-30T15:50:28.474Z,22.70
2019-03-30T15:52:59.906Z,20.17
2019-03-30T15:55:31.314Z,20.97
2019-03-30T15:58:02.132Z,19.80
2019-03-30T16:00:32.839Z,21.90
2019-03-30T16:03:03.946Z,21.40
2019-03-30T16:05:34.611Z,23.13
2019-03-30T16:08:05.161Z,26.40
2019-03-30T16:10:35.707Z,20.23
2019-03-30T16:13:06.343Z,21.23
2019-03-30T16:15:37.581Z,22.83
2019-03-30T16:18:08.454Z,26.70
2019-03-30T16:20:38.904Z,23.13
2019-03-30T16:23:09.611Z,22.07
2019-03-30T16:25:40.599Z,24.03
2019-03-30T16:28:11.132Z,21.60
2019-03-30T16:30:41.712Z,21.30
2019-03-30T16:33:15.111Z,19.30
2019-03-30T16:35:46.338Z,21.73
2019-03-30T16:38:17.172Z,23.10
2019-03-30T16:40:47.777Z,22.97
2019-03-30T16:43:18.629Z,20.70
2019-03-30T16:45:49.952Z,21.93
2019-03-30T16:48:20.848Z,20.87
2019-03-30T16:50:51.570Z,22.43
2019-03-30T16:53:22.474Z,27.40
2019-03-30T16:55:53.061Z,64.23
2019-03-30T17:00:59.506Z,24.80
2019-03-30T17:03:30.281Z,29.00
2019-03-30T17:06:00.877Z,26.70
2019-03-30T17:08:33.135Z,28.90
2019-03-30T17:11:03.886Z,34.93
2019-03-30T17:13:35.011Z,29.20
2019-03-30T17:16:05.754Z,49.57
2019-03-30T17:18:36.238Z,67.50
2019-03-30T17:21:06.845Z,58.40
2019-03-30T17:23:37.397Z,101.30
2019-03-30T17:26:07.900Z,57.77
2019-03-30T17:28:38.817Z,72.30
2019-03-30T17:31:09.820Z,145.80
2019-03-30T17:33:41.289Z,116.33
2019-03-30T17:36:13.430Z,62.77
2019-03-30T17:38:43.984Z,63.80
2019-03-30T17:41:14.630Z,69.23
2019-03-30T17:43:45.307Z,105.60
2019-03-30T17:46:17.211Z,68.13
2019-03-30T17:48:47.920Z,54.60
2019-03-30T17:51:19.030Z,59.20
2019-03-30T17:53:51.402Z,73.20
2019-03-30T17:56:22.052Z,101.40
2019-03-30T17:58:52.570Z,87.20
2019-03-30T18:01:23.261Z,93.07
2019-03-30T18:03:53.879Z,100.90
2019-03-30T18:06:24.631Z,92.27
2019-03-30T18:08:56.024Z,75.77
2019-03-30T18:11:26.813Z,59.60
2019-03-30T18:13:57.974Z,66.00
2019-03-30T18:16:29.107Z,65.20
2019-03-30T18:19:00.064Z,67.80
2019-03-30T18:21:30.972Z,49.27
2019-03-30T18:24:03.048Z,97.37
2019-03-30T18:26:36.382Z,112.37
2019-03-30T18:29:07.049Z,107.47
2019-03-30T18:31:37.817Z,110.63
2019-03-30T18:34:11.306Z,134.57
2019-03-30T18:36:41.734Z,153.10
2019-03-30T18:39:12.604Z,169.90
2019-03-30T18:41:43.382Z,160.57
2019-03-30T18:44:14.147Z,138.20
2019-03-30T18:46:45.095Z,162.63
2019-03-30T18:49:15.882Z,164.70
2019-03-30T18:51:46.450Z,159.33
2019-03-30T18:54:17.359Z,162.73
2019-03-30T18:56:48.184Z,167.57
2019-03-30T18:59:19.104Z,131.43
2019-03-30T19:01:49.624Z,142.37
2019-03-30T19:04:20.826Z,116.33
2019-03-30T19:06:51.980Z,123.53
2019-03-30T19:09:22.929Z,132.53
2019-03-30T19:11:53.687Z,122.83
2019-03-30T19:14:24.586Z,135.20
2019-03-30T19:16:55.100Z,125.07
2019-03-30T19:19:26.604Z,120.40
2019-03-30T19:21:57.228Z,111.00
2019-03-30T19:24:27.793Z,94.90
2019-03-30T19:26:58.757Z,95.23
2019-03-30T19:29:31.406Z,101.63
2019-03-30T19:32:02.628Z,116.90
2019-03-30T19:34:33.747Z,113.70
2019-03-30T19:37:04.888Z,103.50
2019-03-30T19:39:35.519Z,103.97
2019-03-30T19:42:06.170Z,104.00
2019-03-30T19:44:37.252Z,107.63
2019-03-30T19:47:08.145Z,96.80
2019-03-30T19:49:39.085Z,110.20
2019-03-30T19:52:10.301Z,103.20
2019-03-30T19:54:41.574Z,106.47
2019-03-30T19:57:12.556Z,109.10
2019-03-30T19:59:43.185Z,142.20
2019-03-30T20:02:15.244Z,72.97
2019-03-30T20:04:45.940Z,84.73
2019-03-30T20:07:18.423Z,64.03
2019-03-30T20:09:49.411Z,58.57
2019-03-30T20:12:20.236Z,71.97
2019-03-30T20:14:51.231Z,75.07
2019-03-30T20:17:21.914Z,71.17
2019-03-30T20:19:54.064Z,71.40
2019-03-30T20:22:24.897Z,70.63
2019-03-30T20:24:56.801Z,71.57
2019-03-30T20:27:28.030Z,75.20
2019-03-30T20:30:00.630Z,70.90
2019-03-30T20:32:31.277Z,73.20
2019-03-30T20:35:03.001Z,76.37
2019-03-30T20:37:33.569Z,68.87
2019-03-30T20:40:07.296Z,71.47
2019-03-30T20:42:38.521Z,67.33
2019-03-30T20:45:10.501Z,62.03
2019-03-30T20:47:41.262Z,62.10
2019-03-30T20:50:12.220Z,61.67
2019-03-30T20:52:43.734Z,61.47
2019-03-30T20:55:14.470Z,70.23
2019-03-30T20:57:46.007Z,69.43
2019-03-30T21:00:17.438Z,62.93
2019-03-30T21:02:48.204Z,67.23
2019-03-30T21:05:20.283Z,60.10
2019-03-30T21:07:51.114Z,68.23
2019-03-30T21:10:21.780Z,66.53
2019-03-30T21:12:52.729Z,72.73
2019-03-30T21:15:23.468Z,67.33
2019-03-30T21:17:55.006Z,68.13
2019-03-30T21:20:25.502Z,66.77
2019-03-30T21:22:56.980Z,64.50
2019-03-30T21:25:27.823Z,61.63
2019-03-30T21:27:58.660Z,61.73
2019-03-30T21:30:29.569Z,65.80
2019-03-30T21:33:00.186Z,65.20
2019-03-30T21:35:31.714Z,72.33
2019-03-30T21:38:02.083Z,67.70
2019-03-30T21:40:32.575Z,64.00
2019-03-30T21:43:03.130Z,67.27
2019-03-30T21:45:33.923Z,64.53
2019-03-30T21:48:04.468Z,61.33
2019-03-30T21:50:35.308Z,57.73
2019-03-30T21:53:06.000Z,73.87
2019-03-30T21:55:37.064Z,64.70
2019-03-30T21:58:08.572Z,70.27
2019-03-30T22:03:15.856Z,66.97
2019-03-30T22:05:46.359Z,68.80
2019-03-30T22:08:17.410Z,63.93
2019-03-30T22:10:48.425Z,65.33
2019-03-30T22:13:21.528Z,71.73
2019-03-30T22:15:52.784Z,77.57
2019-03-30T22:18:25.652Z,73.70
2019-03-30T22:20:56.221Z,74.17
2019-03-30T22:23:26.817Z,71.30
2019-03-30T22:25:57.469Z,82.17
2019-03-30T22:28:29.583Z,76.77
2019-03-30T22:31:00.836Z,81.13
2019-03-30T22:33:31.916Z,80.97
2019-03-30T22:36:03.384Z,76.73
2019-03-30T22:38:33.863Z,84.57
2019-03-30T22:41:05.652Z,81.07
2019-03-30T22:43:36.494Z,78.77
2019-03-30T22:46:07.720Z,75.60
2019-03-30T22:48:38.659Z,75.13
2019-03-30T22:51:09.266Z,73.90
2019-03-30T22:53:39.998Z,92.53
2019-03-30T22:56:11.385Z,73.33
2019-03-30T22:58:41.893Z,77.93
2019-03-30T23:01:14.026Z,74.80
2019-03-30T23:03:46.069Z,72.07
2019-03-30T23:06:16.634Z,76.73
2019-03-30T23:08:47.208Z,78.70
2019-03-30T23:11:17.966Z,83.27
2019-03-30T23:13:48.525Z,77.87
2019-03-30T23:16:19.055Z,78.23
2019-03-30T23:18:49.425Z,110.67
2019-03-30T23:21:19.802Z,129.13
2019-03-30T23:23:50.336Z,149.93
2019-03-30T23:26:20.788Z,162.27
2019-03-30T23:28:51.759Z,155.37
2019-03-30T23:31:22.588Z,141.47
2019-03-30T23:33:53.159Z,107.33
2019-03-30T23:36:24.497Z,110.10
2019-03-30T23:38:55.011Z,97.10
2019-03-30T23:41:25.718Z,95.93
2019-03-30T23:43:56.387Z,99.57
2019-03-30T23:46:26.851Z,80.40
2019-03-30T23:48:57.330Z,84.57
2019-03-30T23:51:28.952Z,80.83
2019-03-30T23:53:59.567Z,72.17
2019-03-30T23:56:30.412Z,74.67
2019-03-30T23:59:01.314Z,79.43
